Terminal Aerodrome Forecast
Issued by NWS

Home | Current Version | Previous Version | Text Only | Print | Product List | Glossary On
Versions: 1 2 3 4 5 6 7 8 9 10 11 12 13 14 15 16 17
000
FTAK31 PAJN 200500
TAFAWG
TAF
PAWG 200523Z 2006/2106 10005KT P6SM -RA SCT025 OVC050
     FM201100 12018G28KT 5SM RA BR SCT015 OVC025 WS020/14040KT
     FM201900 12010G16KT 6SM -SHRA BR BKN015 OVC025 WS020/18035KT
     FM202200 15006KT P6SM -SHRA SCT015 OVC025
     FM210100 VRB05KT P6SM -SHRA BKN015 OVC025
      AMD LTD TO CLD VIS AND WIND 2006/2015=

USA.gov is the U.S. government's official web portal to all federal, state and local government web resources and services.